CEST,Max TemperatureF,Mean TemperatureF,Min TemperatureF,Max Dew PointF,MeanDew PointF,Min DewpointF,Max Humidity, Mean Humidity, Min Humidity, Max Sea Level PressureIn, Mean Sea Level PressureIn, Min Sea Level PressureIn, Max VisibilityMiles, Mean VisibilityMiles, Min VisibilityMiles, Max Wind SpeedMPH, Mean Wind SpeedMPH, Max Gust SpeedMPH,PrecipitationIn, CloudCover, Events, WindDirDegrees
2013-3-1,55,45,35,39,35,32,93,74,47,30.12,30.04,30.01,6,6,6,7,3,,0.00,5,,60
2013-3-2,42,35,28,36,32,28,100,89,66,30.15,30.11,30.06,6,3,0,9,2,,0.00,6,Fog,82
2013-3-3,64,46,28,37,33,27,100,67,28,30.06,29.95,29.86,6,5,1,14,4,,0.00,3,Fog,110
2013-3-4,64,48,33,43,37,28,87,63,40,29.86,29.68,29.56,6,6,6,12,5,,0.00,,,100
2013-3-5,66,57,48,48,45,41,82,66,49,29.53,29.44,29.39,6,6,6,15,7,,0.00,5,,102
2013-3-6,64,57,50,52,50,46,100,83,59,29.42,29.37,29.33,6,6,6,8,5,,0.00,6,Rain,109
2013-3-7,73,58,44,54,47,43,94,69,33,29.50,29.44,29.33,6,6,4,29,4,31,0.00,7,Rain,149
2013-3-8,68,58,48,48,45,41,94,67,37,29.68,29.62,29.50,6,6,6,22,11,,0.00,5,Rain,273
2013-3-9,64,54,44,48,43,37,100,69,40,29.68,29.62,29.59,6,6,4,17,6,,0.00,5,Rain,214
2013-3-10,62,52,42,43,38,36,81,61,39,29.59,29.55,29.53,6,6,6,16,6,,0.00,5,,229
2013-3-11,60,51,42,46,41,36,93,68,39,29.56,29.53,29.44,6,6,2,22,7,39,0.00,6,Rain-Thunderstorm,252
2013-3-12,51,43,33,46,40,34,100,81,62,29.65,29.58,29.53,6,6,3,22,10,,0.00,6,Rain-Snow,301
2013-3-13,33,32,30,32,30,28,100,97,93,29.98,29.77,29.62,4,2,0,7,2,,0.00,7,Fog-Snow,263
2013-3-14,42,35,28,39,32,25,100,86,53,30.06,29.99,29.95,6,5,2,17,4,,0.00,6,Rain-Snow,264
2013-3-15,50,39,28,34,30,27,100,71,40,30.12,30.07,30.01,6,6,5,6,3,,0.00,3,,172
2013-3-16,57,46,35,43,33,25,81,62,36,29.98,29.77,29.65,6,6,6,10,5,,0.00,7,Rain,99
2013-3-17,51,46,42,46,43,41,100,90,76,29.65,29.52,29.50,6,6,5,12,5,,0.00,7,Rain,252
2013-3-18,50,44,37,41,39,34,93,85,66,29.74,29.60,29.50,6,6,5,28,10,41,0.00,6,Rain,267
2013-3-19,57,48,39,43,38,34,93,70,41,29.74,29.64,29.53,6,6,6,15,7,,0.00,7,Rain,121
2013-3-20,55,48,41,45,41,37,93,81,54,30.06,29.87,29.62,6,6,4,18,8,,0.00,6,Rain,258
2013-3-21,69,52,35,37,30,23,87,49,18,30.04,29.91,29.77,6,6,6,10,5,,0.00,,,120
2013-3-22,71,56,41,48,41,34,94,64,29,29.77,29.65,29.56,6,6,4,17,4,,0.00,6,Rain,98
2013-3-23,64,52,41,48,44,41,100,75,42,29.74,29.62,29.53,6,5,0,10,4,,0.00,6,Fog,108
2013-3-24,62,50,39,48,43,36,93,75,48,29.71,29.57,29.53,6,6,6,10,5,,0.00,6,Rain-Thunderstorm,141
2013-3-25,59,54,48,48,46,41,100,82,55,29.77,29.68,29.59,6,6,2,13,8,,0.00,6,Rain,275
2013-3-26,57,52,46,48,46,45,100,83,63,29.68,29.64,29.59,6,6,1,6,3,,0.00,6,Rain,2
2013-3-27,60,54,48,52,47,45,100,79,55,29.62,29.57,29.53,6,6,3,7,3,,0.00,6,Rain,61
2013-3-28,51,48,44,50,46,43,100,89,76,29.83,29.72,29.62,6,4,1,10,4,,0.00,7,Rain,313
2013-3-29,69,58,48,54,49,46,100,77,46,29.77,29.66,29.53,6,6,2,16,5,,0.00,6,Rain,247
2013-3-30,57,52,48,54,48,45,100,85,63,29.89,29.77,29.59,6,6,2,24,14,48,0.00,6,Rain,280
2013-3-31,62,55,48,48,44,41,93,74,45,29.86,29.71,29.47,6,6,4,12,6,,0.00,5,Rain,304
2013-4-1,,,,,,,,,,,,,,,,,,,,,,